sensor_id;sensor_type;location;lat;lon;timestamp;temperature;humidity
2539;DHT22;1280;49.760;9.664;2022-12-18T00:01:30;-6.50;69.30
2539;DHT22;1280;49.760;9.664;2022-12-18T00:04:00;-6.60;69.20
2539;DHT22;1280;49.760;9.664;2022-12-18T00:06:29;-6.60;69.20
2539;DHT22;1280;49.760;9.664;2022-12-18T00:09:02;-6.50;69.40
2539;DHT22;1280;49.760;9.664;2022-12-18T00:11:31;-6.50;69.40
2539;DHT22;1280;49.760;9.664;2022-12-18T00:13:59;-6.50;69.30
2539;DHT22;1280;49.760;9.664;2022-12-18T00:16:28;-6.50;69.30
2539;DHT22;1280;49.760;9.664;2022-12-18T00:18:57;-6.40;69.30
2539;DHT22;1280;49.760;9.664;2022-12-18T00:21:26;-6.40;69.30
2539;DHT22;1280;49.760;9.664;2022-12-18T00:23:54;-6.50;69.10
2539;DHT22;1280;49.760;9.664;2022-12-18T00:26:25;-6.40;69.00
2539;DHT22;1280;49.760;9.664;2022-12-18T00:28:59;-6.50;68.80
2539;DHT22;1280;49.760;9.664;2022-12-18T00:31:29;-6.50;68.90
2539;DHT22;1280;49.760;9.664;2022-12-18T00:34:00;-6.50;69.10
2539;DHT22;1280;49.760;9.664;2022-12-18T00:36:30;-6.50;69.10
2539;DHT22;1280;49.760;9.664;2022-12-18T00:38:59;-6.50;69.10
2539;DHT22;1280;49.760;9.664;2022-12-18T00:41:29;-6.50;69.00
2539;DHT22;1280;49.760;9.664;2022-12-18T00:44:16;-6.50;69.00
2539;DHT22;1280;49.760;9.664;2022-12-18T00:46:45;-6.60;68.90
2539;DHT22;1280;49.760;9.664;2022-12-18T00:49:14;-6.60;68.90
2539;DHT22;1280;49.760;9.664;2022-12-18T00:51:43;-6.60;69.00
2539;DHT22;1280;49.760;9.664;2022-12-18T00:54:11;-6.60;69.00
2539;DHT22;1280;49.760;9.664;2022-12-18T00:56:41;-6.50;69.00
2539;DHT22;1280;49.760;9.664;2022-12-18T00:59:16;-6.50;69.00
2539;DHT22;1280;49.760;9.664;2022-12-18T01:01:45;-6.50;68.90
2539;DHT22;1280;49.760;9.664;2022-12-18T01:04:13;-6.50;68.90
2539;DHT22;1280;49.760;9.664;2022-12-18T01:06:44;-6.50;68.70
2539;DHT22;1280;49.760;9.664;2022-12-18T01:09:13;-6.50;68.70
2539;DHT22;1280;49.760;9.664;2022-12-18T01:11:42;-6.50;68.60
2539;DHT22;1280;49.760;9.664;2022-12-18T01:14:10;-6.60;68.50
2539;DHT22;1280;49.760;9.664;2022-12-18T01:16:38;-6.60;68.40
2539;DHT22;1280;49.760;9.664;2022-12-18T01:19:06;-6.70;68.30
2539;DHT22;1280;49.760;9.664;2022-12-18T01:21:35;-6.70;68.30
2539;DHT22;1280;49.760;9.664;2022-12-18T01:24:04;-6.90;68.10
2539;DHT22;1280;49.760;9.664;2022-12-18T01:26:33;-6.90;68.20
2539;DHT22;1280;49.760;9.664;2022-12-18T01:29:02;-7.00;68.40
2539;DHT22;1280;49.760;9.664;2022-12-18T01:31:32;-7.00;68.50
2539;DHT22;1280;49.760;9.664;2022-12-18T01:34:02;-6.90;68.60
2539;DHT22;1280;49.760;9.664;2022-12-18T01:36:32;-7.00;68.50
2539;DHT22;1280;49.760;9.664;2022-12-18T01:39:02;-7.00;68.50
2539;DHT22;1280;49.760;9.664;2022-12-18T01:41:31;-7.00;68.50
2539;DHT22;1280;49.760;9.664;2022-12-18T01:47:36;-6.90;68.70
2539;DHT22;1280;49.760;9.664;2022-12-18T01:50:09;-6.90;68.50
2539;DHT22;1280;49.760;9.664;2022-12-18T01:52:38;-7.00;68.40
2539;DHT22;1280;49.760;9.664;2022-12-18T01:55:08;-7.00;68.30
2539;DHT22;1280;49.760;9.664;2022-12-18T01:57:38;-7.10;68.30
2539;DHT22;1280;49.760;9.664;2022-12-18T02:00:09;-7.10;68.30
2539;DHT22;1280;49.760;9.664;2022-12-18T02:02:43;-7.10;68.50
2539;DHT22;1280;49.760;9.664;2022-12-18T02:05:15;-7.00;68.60
2539;DHT22;1280;49.760;9.664;2022-12-18T02:07:54;-7.00;68.50
2539;DHT22;1280;49.760;9.664;2022-12-18T02:10:29;-7.00;68.50
2539;DHT22;1280;49.760;9.664;2022-12-18T02:13:06;-7.00;68.50
2539;DHT22;1280;49.760;9.664;2022-12-18T02:15:41;-7.00;68.60
2539;DHT22;1280;49.760;9.664;2022-12-18T02:18:17;-6.90;68.60
2539;DHT22;1280;49.760;9.664;2022-12-18T02:20:49;-6.90;68.60
2539;DHT22;1280;49.760;9.664;2022-12-18T02:23:31;-6.90;68.60
2539;DHT22;1280;49.760;9.664;2022-12-18T02:26:16;-6.80;68.50
2539;DHT22;1280;49.760;9.664;2022-12-18T02:28:52;-6.90;68.10
2539;DHT22;1280;49.760;9.664;2022-12-18T02:31:27;-7.00;68.00
2539;DHT22;1280;49.760;9.664;2022-12-18T02:34:00;-7.00;68.10
2539;DHT22;1280;49.760;9.664;2022-12-18T02:36:36;-7.10;68.20
2539;DHT22;1280;49.760;9.664;2022-12-18T02:39:07;-7.00;68.40
2539;DHT22;1280;49.760;9.664;2022-12-18T02:41:42;-7.00;68.40
2539;DHT22;1280;49.760;9.664;2022-12-18T02:44:12;-7.00;68.40
2539;DHT22;1280;49.760;9.664;2022-12-18T02:46:43;-7.00;68.40
2539;DHT22;1280;49.760;9.664;2022-12-18T02:49:25;-7.00;68.40
2539;DHT22;1280;49.760;9.664;2022-12-18T02:52:04;-6.90;68.40
2539;DHT22;1280;49.760;9.664;2022-12-18T02:54:41;-6.90;68.30
2539;DHT22;1280;49.760;9.664;2022-12-18T02:57:19;-6.90;68.30
2539;DHT22;1280;49.760;9.664;2022-12-18T02:59:56;-6.90;68.20
2539;DHT22;1280;49.760;9.664;2022-12-18T03:02:32;-7.00;68.20
2539;DHT22;1280;49.760;9.664;2022-12-18T03:05:04;-7.00;68.00
2539;DHT22;1280;49.760;9.664;2022-12-18T03:07:38;-7.10;68.00
2539;DHT22;1280;49.760;9.664;2022-12-18T03:10:13;-7.10;68.10
2539;DHT22;1280;49.760;9.664;2022-12-18T03:12:48;-7.00;68.20
2539;DHT22;1280;49.760;9.664;2022-12-18T03:15:22;-7.10;67.90
2539;DHT22;1280;49.760;9.664;2022-12-18T03:18:01;-7.20;67.80
2539;DHT22;1280;49.760;9.664;2022-12-18T03:20:32;-7.20;67.90
2539;DHT22;1280;49.760;9.664;2022-12-18T03:23:06;-7.30;67.80
2539;DHT22;1280;49.760;9.664;2022-12-18T03:25:40;-7.30;67.60
2539;DHT22;1280;49.760;9.664;2022-12-18T03:28:13;-7.40;67.80
2539;DHT22;1280;49.760;9.664;2022-12-18T03:30:44;-7.40;67.90
2539;DHT22;1280;49.760;9.664;2022-12-18T03:33:16;-7.40;67.80
2539;DHT22;1280;49.760;9.664;2022-12-18T03:35:48;-7.50;67.70
2539;DHT22;1280;49.760;9.664;2022-12-18T03:38:18;-7.50;67.80
2539;DHT22;1280;49.760;9.664;2022-12-18T03:40:56;-7.50;68.10
2539;DHT22;1280;49.760;9.664;2022-12-18T03:43:39;-7.40;68.30
2539;DHT22;1280;49.760;9.664;2022-12-18T03:46:17;-7.30;68.20
2539;DHT22;1280;49.760;9.664;2022-12-18T03:48:51;-7.30;68.20
2539;DHT22;1280;49.760;9.664;2022-12-18T03:51:24;-7.30;68.20
2539;DHT22;1280;49.760;9.664;2022-12-18T03:53:58;-7.30;68.20
2539;DHT22;1280;49.760;9.664;2022-12-18T03:56:33;-7.20;68.20
2539;DHT22;1280;49.760;9.664;2022-12-18T03:59:06;-7.20;68.20
2539;DHT22;1280;49.760;9.664;2022-12-18T04:01:39;-7.20;68.00
2539;DHT22;1280;49.760;9.664;2022-12-18T04:04:12;-7.30;67.90
2539;DHT22;1280;49.760;9.664;2022-12-18T04:06:43;-7.30;68.00
2539;DHT22;1280;49.760;9.664;2022-12-18T04:09:13;-7.30;67.90
2539;DHT22;1280;49.760;9.664;2022-12-18T04:11:46;-7.30;67.80
2539;DHT22;1280;49.760;9.664;2022-12-18T04:14:16;-7.40;67.70
2539;DHT22;1280;49.760;9.664;2022-12-18T04:16:48;-7.40;67.70
2539;DHT22;1280;49.760;9.664;2022-12-18T04:19:20;-7.50;67.90
2539;DHT22;1280;49.760;9.664;2022-12-18T04:21:50;-7.40;68.00
2539;DHT22;1280;49.760;9.664;2022-12-18T04:24:18;-7.40;68.00
2539;DHT22;1280;49.760;9.664;2022-12-18T04:27:11;-7.30;68.00
2539;DHT22;1280;49.760;9.664;2022-12-18T04:29:44;-7.40;67.80
2539;DHT22;1280;49.760;9.664;2022-12-18T04:32:13;-7.40;67.80
2539;DHT22;1280;49.760;9.664;2022-12-18T04:34:43;-7.40;67.90
2539;DHT22;1280;49.760;9.664;2022-12-18T04:37:11;-7.40;68.00
2539;DHT22;1280;49.760;9.664;2022-12-18T04:39:39;-7.30;68.00
2539;DHT22;1280;49.760;9.664;2022-12-18T04:42:14;-7.30;67.80
2539;DHT22;1280;49.760;9.664;2022-12-18T04:44:44;-7.40;67.80
2539;DHT22;1280;49.760;9.664;2022-12-18T04:47:11;-7.40;67.70
2539;DHT22;1280;49.760;9.664;2022-12-18T04:49:39;-7.40;67.80
2539;DHT22;1280;49.760;9.664;2022-12-18T04:52:07;-7.40;67.80
2539;DHT22;1280;49.760;9.664;2022-12-18T04:54:35;-7.40;67.70
2539;DHT22;1280;49.760;9.664;2022-12-18T04:57:03;-7.50;67.30
2539;DHT22;1280;49.760;9.664;2022-12-18T04:59:31;-7.60;67.00
2539;DHT22;1280;49.760;9.664;2022-12-18T05:02:00;-7.70;67.00
2539;DHT22;1280;49.760;9.664;2022-12-18T05:04:29;-7.80;67.20
2539;DHT22;1280;49.760;9.664;2022-12-18T05:06:56;-7.80;67.30
2539;DHT22;1280;49.760;9.664;2022-12-18T05:09:24;-7.80;67.50
2539;DHT22;1280;49.760;9.664;2022-12-18T05:11:52;-7.90;67.50
2539;DHT22;1280;49.760;9.664;2022-12-18T05:14:20;-7.90;67.50
2539;DHT22;1280;49.760;9.664;2022-12-18T05:16:48;-7.90;67.50
2539;DHT22;1280;49.760;9.664;2022-12-18T05:19:18;-7.90;67.70
2539;DHT22;1280;49.760;9.664;2022-12-18T05:21:46;-7.80;67.80
2539;DHT22;1280;49.760;9.664;2022-12-18T05:24:14;-7.80;67.90
2539;DHT22;1280;49.760;9.664;2022-12-18T05:26:42;-7.80;67.90
2539;DHT22;1280;49.760;9.664;2022-12-18T05:29:10;-7.70;67.80
2539;DHT22;1280;49.760;9.664;2022-12-18T05:31:40;-7.70;67.80
2539;DHT22;1280;49.760;9.664;2022-12-18T05:34:09;-7.70;67.80
2539;DHT22;1280;49.760;9.664;2022-12-18T05:36:39;-7.60;67.80
2539;DHT22;1280;49.760;9.664;2022-12-18T05:39:08;-7.60;67.80
2539;DHT22;1280;49.760;9.664;2022-12-18T05:41:36;-7.60;67.50
2539;DHT22;1280;49.760;9.664;2022-12-18T05:44:04;-7.70;67.40
2539;DHT22;1280;49.760;9.664;2022-12-18T05:46:32;-7.70;67.50
2539;DHT22;1280;49.760;9.664;2022-12-18T05:49:00;-7.70;67.60
2539;DHT22;1280;49.760;9.664;2022-12-18T05:51:28;-7.70;67.40
2539;DHT22;1280;49.760;9.664;2022-12-18T05:53:57;-7.80;67.50
2539;DHT22;1280;49.760;9.664;2022-12-18T05:56:25;-7.80;67.60
2539;DHT22;1280;49.760;9.664;2022-12-18T05:58:54;-7.80;67.60
2539;DHT22;1280;49.760;9.664;2022-12-18T06:01:24;-7.70;67.60
2539;DHT22;1280;49.760;9.664;2022-12-18T06:03:53;-7.70;67.60
2539;DHT22;1280;49.760;9.664;2022-12-18T06:06:23;-7.70;67.70
2539;DHT22;1280;49.760;9.664;2022-12-18T06:08:52;-7.70;67.60
2539;DHT22;1280;49.760;9.664;2022-12-18T06:11:23;-7.60;67.60
2539;DHT22;1280;49.760;9.664;2022-12-18T06:13:52;-7.60;67.60
2539;DHT22;1280;49.760;9.664;2022-12-18T06:16:25;-7.60;67.60
2539;DHT22;1280;49.760;9.664;2022-12-18T06:18:53;-7.60;67.50
2539;DHT22;1280;49.760;9.664;2022-12-18T06:21:23;-7.60;67.50
2539;DHT22;1280;49.760;9.664;2022-12-18T06:23:51;-7.60;67.50
2539;DHT22;1280;49.760;9.664;2022-12-18T06:26:20;-7.60;67.50
2539;DHT22;1280;49.760;9.664;2022-12-18T06:28:54;-7.60;67.50
2539;DHT22;1280;49.760;9.664;2022-12-18T06:31:22;-7.60;67.40
2539;DHT22;1280;49.760;9.664;2022-12-18T06:33:50;-7.60;67.40
2539;DHT22;1280;49.760;9.664;2022-12-18T06:36:18;-7.60;67.40
2539;DHT22;1280;49.760;9.664;2022-12-18T06:38:46;-7.60;67.40
2539;DHT22;1280;49.760;9.664;2022-12-18T06:41:16;-7.60;67.40
2539;DHT22;1280;49.760;9.664;2022-12-18T06:43:45;-7.60;67.60
2539;DHT22;1280;49.760;9.664;2022-12-18T06:46:13;-7.50;68.00
2539;DHT22;1280;49.760;9.664;2022-12-18T06:48:42;-7.50;68.00
2539;DHT22;1280;49.760;9.664;2022-12-18T06:51:10;-7.60;68.60
2539;DHT22;1280;49.760;9.664;2022-12-18T06:53:38;-7.60;68.70
2539;DHT22;1280;49.760;9.664;2022-12-18T06:56:07;-7.60;68.70
2539;DHT22;1280;49.760;9.664;2022-12-18T06:58:37;-7.60;69.00
2539;DHT22;1280;49.760;9.664;2022-12-18T07:01:08;-7.50;69.40
2539;DHT22;1280;49.760;9.664;2022-12-18T07:03:37;-7.50;69.20
2539;DHT22;1280;49.760;9.664;2022-12-18T07:06:11;-7.50;69.30
2539;DHT22;1280;49.760;9.664;2022-12-18T07:08:39;-7.40;69.10
2539;DHT22;1280;49.760;9.664;2022-12-18T07:11:07;-7.30;69.30
2539;DHT22;1280;49.760;9.664;2022-12-18T07:13:35;-7.30;70.30
2539;DHT22;1280;49.760;9.664;2022-12-18T07:16:07;-7.30;70.00
2539;DHT22;1280;49.760;9.664;2022-12-18T07:18:46;-7.20;69.60
2539;DHT22;1280;49.760;9.664;2022-12-18T07:21:16;-7.20;70.00
2539;DHT22;1280;49.760;9.664;2022-12-18T07:23:44;-7.10;69.90
2539;DHT22;1280;49.760;9.664;2022-12-18T07:26:16;-7.10;70.10
2539;DHT22;1280;49.760;9.664;2022-12-18T07:28:44;-7.10;70.40
2539;DHT22;1280;49.760;9.664;2022-12-18T07:31:15;-7.00;70.80
2539;DHT22;1280;49.760;9.664;2022-12-18T07:33:43;-7.00;70.40
2539;DHT22;1280;49.760;9.664;2022-12-18T07:36:11;-7.00;70.70
2539;DHT22;1280;49.760;9.664;2022-12-18T07:38:39;-6.90;70.60
2539;DHT22;1280;49.760;9.664;2022-12-18T07:41:09;-6.90;71.20
2539;DHT22;1280;49.760;9.664;2022-12-18T07:43:40;-6.90;71.10
2539;DHT22;1280;49.760;9.664;2022-12-18T07:46:10;-6.90;71.20
2539;DHT22;1280;49.760;9.664;2022-12-18T07:48:40;-6.90;71.30
2539;DHT22;1280;49.760;9.664;2022-12-18T07:51:10;-6.80;71.70
2539;DHT22;1280;49.760;9.664;2022-12-18T07:53:38;-6.80;71.30
2539;DHT22;1280;49.760;9.664;2022-12-18T07:56:09;-6.70;71.70
2539;DHT22;1280;49.760;9.664;2022-12-18T07:58:56;-6.70;71.60
2539;DHT22;1280;49.760;9.664;2022-12-18T08:01:24;-6.70;72.30
2539;DHT22;1280;49.760;9.664;2022-12-18T08:03:54;-6.60;72.60
2539;DHT22;1280;49.760;9.664;2022-12-18T08:06:22;-6.60;72.40
2539;DHT22;1280;49.760;9.664;2022-12-18T08:08:51;-6.60;72.50
2539;DHT22;1280;49.760;9.664;2022-12-18T08:11:20;-6.60;73.40
2539;DHT22;1280;49.760;9.664;2022-12-18T08:13:48;-6.50;72.80
2539;DHT22;1280;49.760;9.664;2022-12-18T08:16:16;-6.50;72.50
2539;DHT22;1280;49.760;9.664;2022-12-18T08:18:46;-6.50;73.40
2539;DHT22;1280;49.760;9.664;2022-12-18T08:21:18;-6.40;72.90
2539;DHT22;1280;49.760;9.664;2022-12-18T08:23:48;-6.40;74.30
2539;DHT22;1280;49.760;9.664;2022-12-18T08:26:18;-6.40;73.30
2539;DHT22;1280;49.760;9.664;2022-12-18T08:28:47;-6.30;74.10
2539;DHT22;1280;49.760;9.664;2022-12-18T08:31:16;-6.30;74.40
2539;DHT22;1280;49.760;9.664;2022-12-18T08:33:45;-6.30;74.90
2539;DHT22;1280;49.760;9.664;2022-12-18T08:36:17;-6.20;73.70
2539;DHT22;1280;49.760;9.664;2022-12-18T08:38:45;-6.10;73.50
2539;DHT22;1280;49.760;9.664;2022-12-18T08:41:15;-6.10;74.10
2539;DHT22;1280;49.760;9.664;2022-12-18T08:43:43;-6.00;74.10
2539;DHT22;1280;49.760;9.664;2022-12-18T08:46:33;-6.00;74.00
2539;DHT22;1280;49.760;9.664;2022-12-18T08:49:02;-5.90;73.80
2539;DHT22;1280;49.760;9.664;2022-12-18T08:51:31;-5.80;73.80
2539;DHT22;1280;49.760;9.664;2022-12-18T08:54:00;-5.70;73.80
2539;DHT22;1280;49.760;9.664;2022-12-18T08:56:28;-5.70;73.80
2539;DHT22;1280;49.760;9.664;2022-12-18T08:58:57;-5.60;73.90
2539;DHT22;1280;49.760;9.664;2022-12-18T09:01:25;-5.50;74.40
2539;DHT22;1280;49.760;9.664;2022-12-18T09:03:53;-5.50;74.20
2539;DHT22;1280;49.760;9.664;2022-12-18T09:06:22;-5.50;74.40
2539;DHT22;1280;49.760;9.664;2022-12-18T09:08:52;-5.40;74.30
2539;DHT22;1280;49.760;9.664;2022-12-18T09:11:22;-5.30;74.40
2539;DHT22;1280;49.760;9.664;2022-12-18T09:13:51;-5.30;74.80
2539;DHT22;1280;49.760;9.664;2022-12-18T09:16:19;-5.30;74.70
2539;DHT22;1280;49.760;9.664;2022-12-18T09:18:50;-5.20;75.00
2539;DHT22;1280;49.760;9.664;2022-12-18T09:21:20;-5.20;75.30
2539;DHT22;1280;49.760;9.664;2022-12-18T09:23:49;-5.20;75.40
2539;DHT22;1280;49.760;9.664;2022-12-18T09:26:19;-5.20;75.90
2539;DHT22;1280;49.760;9.664;2022-12-18T09:28:47;-5.10;75.20
2539;DHT22;1280;49.760;9.664;2022-12-18T09:31:17;-5.00;75.10
2539;DHT22;1280;49.760;9.664;2022-12-18T09:33:46;-5.00;75.60
2539;DHT22;1280;49.760;9.664;2022-12-18T09:36:15;-4.90;75.30
2539;DHT22;1280;49.760;9.664;2022-12-18T09:38:44;-4.90;75.80
2539;DHT22;1280;49.760;9.664;2022-12-18T09:41:42;-4.80;75.70
2539;DHT22;1280;49.760;9.664;2022-12-18T09:44:24;-4.80;76.20
2539;DHT22;1280;49.760;9.664;2022-12-18T09:47:05;-4.70;76.00
2539;DHT22;1280;49.760;9.664;2022-12-18T09:49:39;-4.70;76.80
2539;DHT22;1280;49.760;9.664;2022-12-18T09:52:12;-4.70;76.60
2539;DHT22;1280;49.760;9.664;2022-12-18T09:54:44;-4.60;76.60
2539;DHT22;1280;49.760;9.664;2022-12-18T09:57:18;-4.60;75.90
2539;DHT22;1280;49.760;9.664;2022-12-18T09:59:51;-4.50;76.40
2539;DHT22;1280;49.760;9.664;2022-12-18T10:02:22;-4.50;76.40
2539;DHT22;1280;49.760;9.664;2022-12-18T10:05:02;-4.40;76.30
2539;DHT22;1280;49.760;9.664;2022-12-18T10:07:42;-4.30;76.10
2539;DHT22;1280;49.760;9.664;2022-12-18T10:10:24;-4.30;76.50
2539;DHT22;1280;49.760;9.664;2022-12-18T10:13:02;-4.20;76.50
2539;DHT22;1280;49.760;9.664;2022-12-18T10:15:37;-4.20;76.50
2539;DHT22;1280;49.760;9.664;2022-12-18T10:18:20;-4.20;76.70
2539;DHT22;1280;49.760;9.664;2022-12-18T10:20:52;-4.10;77.00
2539;DHT22;1280;49.760;9.664;2022-12-18T10:23:26;-4.10;76.50
2539;DHT22;1280;49.760;9.664;2022-12-18T10:26:00;-4.10;77.00
2539;DHT22;1280;49.760;9.664;2022-12-18T10:28:32;-4.00;76.60
2539;DHT22;1280;49.760;9.664;2022-12-18T10:31:00;-3.90;77.10
2539;DHT22;1280;49.760;9.664;2022-12-18T10:33:31;-3.90;76.70
2539;DHT22;1280;49.760;9.664;2022-12-18T10:36:00;-3.90;76.80
2539;DHT22;1280;49.760;9.664;2022-12-18T10:38:31;-3.80;77.10
2539;DHT22;1280;49.760;9.664;2022-12-18T10:41:01;-3.80;76.90
2539;DHT22;1280;49.760;9.664;2022-12-18T10:43:31;-3.70;77.10
2539;DHT22;1280;49.760;9.664;2022-12-18T10:46:12;-3.70;77.50
2539;DHT22;1280;49.760;9.664;2022-12-18T10:48:50;-3.70;77.50
2539;DHT22;1280;49.760;9.664;2022-12-18T10:51:22;-3.70;77.30
2539;DHT22;1280;49.760;9.664;2022-12-18T10:53:59;-3.60;77.40
2539;DHT22;1280;49.760;9.664;2022-12-18T10:56:29;-3.60;77.60
2539;DHT22;1280;49.760;9.664;2022-12-18T10:59:02;-3.50;77.40
2539;DHT22;1280;49.760;9.664;2022-12-18T11:01:46;-3.50;77.30
2539;DHT22;1280;49.760;9.664;2022-12-18T11:04:18;-3.50;77.90
2539;DHT22;1280;49.760;9.664;2022-12-18T11:06:54;-3.40;78.10
2539;DHT22;1280;49.760;9.664;2022-12-18T11:09:24;-3.40;77.90
2539;DHT22;1280;49.760;9.664;2022-12-18T11:11:54;-3.40;77.90
2539;DHT22;1280;49.760;9.664;2022-12-18T11:14:25;-3.40;78.20
2539;DHT22;1280;49.760;9.664;2022-12-18T11:16:55;-3.30;77.80
2539;DHT22;1280;49.760;9.664;2022-12-18T11:19:52;-3.30;78.00
2539;DHT22;1280;49.760;9.664;2022-12-18T11:22:23;-3.30;79.00
2539;DHT22;1280;49.760;9.664;2022-12-18T11:24:55;-3.20;78.30
2539;DHT22;1280;49.760;9.664;2022-12-18T11:27:48;-3.20;78.20
2539;DHT22;1280;49.760;9.664;2022-12-18T11:30:24;-3.20;78.70
2539;DHT22;1280;49.760;9.664;2022-12-18T11:32:56;-3.10;78.40
2539;DHT22;1280;49.760;9.664;2022-12-18T11:35:37;-3.00;78.40
2539;DHT22;1280;49.760;9.664;2022-12-18T11:38:13;-3.00;78.20
2539;DHT22;1280;49.760;9.664;2022-12-18T11:40:47;-2.90;78.30
2539;DHT22;1280;49.760;9.664;2022-12-18T11:43:23;-2.90;78.40
2539;DHT22;1280;49.760;9.664;2022-12-18T11:45:58;-2.90;78.70
2539;DHT22;1280;49.760;9.664;2022-12-18T11:48:28;-2.90;78.60
2539;DHT22;1280;49.760;9.664;2022-12-18T11:50:58;-2.80;78.80
2539;DHT22;1280;49.760;9.664;2022-12-18T11:53:27;-2.80;78.70
2539;DHT22;1280;49.760;9.664;2022-12-18T11:56:02;-2.70;78.60
2539;DHT22;1280;49.760;9.664;2022-12-18T11:58:54;-2.70;78.50
2539;DHT22;1280;49.760;9.664;2022-12-18T12:01:35;-2.60;78.70
2539;DHT22;1280;49.760;9.664;2022-12-18T12:04:40;-2.60;78.60
2539;DHT22;1280;49.760;9.664;2022-12-18T12:07:17;-2.50;78.70
2539;DHT22;1280;49.760;9.664;2022-12-18T12:09:59;-2.50;79.00
2539;DHT22;1280;49.760;9.664;2022-12-18T12:12:37;-2.50;78.70
2539;DHT22;1280;49.760;9.664;2022-12-18T12:15:23;-2.50;79.10
2539;DHT22;1280;49.760;9.664;2022-12-18T12:18:00;-2.50;79.00
2539;DHT22;1280;49.760;9.664;2022-12-18T12:20:45;-2.40;79.20
2539;DHT22;1280;49.760;9.664;2022-12-18T12:23:20;-2.40;79.20
2539;DHT22;1280;49.760;9.664;2022-12-18T12:25:59;-2.40;79.30
2539;DHT22;1280;49.760;9.664;2022-12-18T12:28:44;-2.30;79.10
2539;DHT22;1280;49.760;9.664;2022-12-18T12:31:19;-2.30;79.00
2539;DHT22;1280;49.760;9.664;2022-12-18T12:34:00;-2.30;79.20
2539;DHT22;1280;49.760;9.664;2022-12-18T12:36:36;-2.20;79.10
2539;DHT22;1280;49.760;9.664;2022-12-18T12:39:11;-2.20;79.00
2539;DHT22;1280;49.760;9.664;2022-12-18T12:41:42;-2.20;79.00
2539;DHT22;1280;49.760;9.664;2022-12-18T12:44:33;-2.10;79.20
2539;DHT22;1280;49.760;9.664;2022-12-18T12:47:09;-2.10;79.30
2539;DHT22;1280;49.760;9.664;2022-12-18T12:49:40;-2.10;79.40
2539;DHT22;1280;49.760;9.664;2022-12-18T12:52:20;-2.10;79.40
2539;DHT22;1280;49.760;9.664;2022-12-18T12:54:54;-2.10;79.50
2539;DHT22;1280;49.760;9.664;2022-12-18T12:57:27;-2.10;79.80
2539;DHT22;1280;49.760;9.664;2022-12-18T13:00:01;-2.10;79.40
2539;DHT22;1280;49.760;9.664;2022-12-18T13:02:34;-2.00;79.30
2539;DHT22;1280;49.760;9.664;2022-12-18T13:05:14;-2.00;79.40
2539;DHT22;1280;49.760;9.664;2022-12-18T13:07:49;-2.00;79.50
2539;DHT22;1280;49.760;9.664;2022-12-18T13:10:31;-2.00;79.80
2539;DHT22;1280;49.760;9.664;2022-12-18T13:13:02;-1.90;79.50
2539;DHT22;1280;49.760;9.664;2022-12-18T13:15:34;-1.90;79.30
2539;DHT22;1280;49.760;9.664;2022-12-18T13:18:13;-1.90;79.30
2539;DHT22;1280;49.760;9.664;2022-12-18T13:20:44;-1.90;79.30
2539;DHT22;1280;49.760;9.664;2022-12-18T13:23:33;-1.90;79.40
2539;DHT22;1280;49.760;9.664;2022-12-18T13:26:32;-1.80;79.40
2539;DHT22;1280;49.760;9.664;2022-12-18T13:29:01;-1.80;79.40
2539;DHT22;1280;49.760;9.664;2022-12-18T13:34:35;-1.80;79.50
2539;DHT22;1280;49.760;9.664;2022-12-18T13:37:44;-1.80;79.40
2539;DHT22;1280;49.760;9.664;2022-12-18T13:43:33;-1.80;79.50
2539;DHT22;1280;49.760;9.664;2022-12-18T13:46:05;-1.80;79.50
2539;DHT22;1280;49.760;9.664;2022-12-18T13:48:35;-1.80;79.40
2539;DHT22;1280;49.760;9.664;2022-12-18T13:51:06;-1.80;79.50
2539;DHT22;1280;49.760;9.664;2022-12-18T13:53:44;-1.70;79.50
2539;DHT22;1280;49.760;9.664;2022-12-18T13:56:16;-1.70;79.50
2539;DHT22;1280;49.760;9.664;2022-12-18T13:58:44;-1.70;79.50
2539;DHT22;1280;49.760;9.664;2022-12-18T14:01:22;-1.70;79.40
2539;DHT22;1280;49.760;9.664;2022-12-18T14:03:50;-1.70;79.50
2539;DHT22;1280;49.760;9.664;2022-12-18T14:06:18;-1.60;79.50
2539;DHT22;1280;49.760;9.664;2022-12-18T14:08:48;-1.60;79.50
2539;DHT22;1280;49.760;9.664;2022-12-18T14:11:20;-1.60;79.50
2539;DHT22;1280;49.760;9.664;2022-12-18T14:13:52;-1.60;79.50
2539;DHT22;1280;49.760;9.664;2022-12-18T14:16:22;-1.60;79.50
2539;DHT22;1280;49.760;9.664;2022-12-18T14:18:56;-1.60;79.50
2539;DHT22;1280;49.760;9.664;2022-12-18T14:21:40;-1.60;79.50
2539;DHT22;1280;49.760;9.664;2022-12-18T14:24:16;-1.60;79.40
2539;DHT22;1280;49.760;9.664;2022-12-18T14:26:46;-1.60;79.40
2539;DHT22;1280;49.760;9.664;2022-12-18T14:29:27;-1.60;79.40
2539;DHT22;1280;49.760;9.664;2022-12-18T14:32:09;-1.60;79.50
2539;DHT22;1280;49.760;9.664;2022-12-18T14:34:43;-1.60;79.40
2539;DHT22;1280;49.760;9.664;2022-12-18T14:37:13;-1.60;79.40
2539;DHT22;1280;49.760;9.664;2022-12-18T14:39:54;-1.60;79.40
2539;DHT22;1280;49.760;9.664;2022-12-18T14:42:23;-1.60;79.40
2539;DHT22;1280;49.760;9.664;2022-12-18T14:45:32;-1.70;79.30
2539;DHT22;1280;49.760;9.664;2022-12-18T14:48:11;-1.70;79.50
2539;DHT22;1280;49.760;9.664;2022-12-18T14:50:45;-1.70;79.50
2539;DHT22;1280;49.760;9.664;2022-12-18T14:53:26;-1.70;79.60
2539;DHT22;1280;49.760;9.664;2022-12-18T14:55:56;-1.70;79.60
2539;DHT22;1280;49.760;9.664;2022-12-18T14:58:25;-1.70;79.70
2539;DHT22;1280;49.760;9.664;2022-12-18T15:00:54;-1.70;79.60
2539;DHT22;1280;49.760;9.664;2022-12-18T15:03:22;-1.70;79.60
2539;DHT22;1280;49.760;9.664;2022-12-18T15:05:52;-1.70;79.60
2539;DHT22;1280;49.760;9.664;2022-12-18T15:08:34;-1.70;79.60
2539;DHT22;1280;49.760;9.664;2022-12-18T15:11:26;-1.70;79.70
2539;DHT22;1280;49.760;9.664;2022-12-18T15:13:54;-1.70;79.60
2539;DHT22;1280;49.760;9.664;2022-12-18T15:16:22;-1.70;79.60
2539;DHT22;1280;49.760;9.664;2022-12-18T15:18:51;-1.70;79.60
2539;DHT22;1280;49.760;9.664;2022-12-18T15:21:20;-1.70;79.60
2539;DHT22;1280;49.760;9.664;2022-12-18T15:23:50;-1.70;79.50
2539;DHT22;1280;49.760;9.664;2022-12-18T15:26:20;-1.80;79.50
2539;DHT22;1280;49.760;9.664;2022-12-18T15:28:51;-1.80;79.60
2539;DHT22;1280;49.760;9.664;2022-12-18T15:31:24;-1.80;79.60
2539;DHT22;1280;49.760;9.664;2022-12-18T15:34:16;-1.80;79.60
2539;DHT22;1280;49.760;9.664;2022-12-18T15:36:47;-1.80;79.60
2539;DHT22;1280;49.760;9.664;2022-12-18T15:39:15;-1.80;79.60
2539;DHT22;1280;49.760;9.664;2022-12-18T15:41:43;-1.70;79.60
2539;DHT22;1280;49.760;9.664;2022-12-18T15:44:32;-1.80;79.40
2539;DHT22;1280;49.760;9.664;2022-12-18T15:46:59;-1.80;79.30
2539;DHT22;1280;49.760;9.664;2022-12-18T15:49:27;-1.90;79.20
2539;DHT22;1280;49.760;9.664;2022-12-18T15:51:57;-1.90;79.10
2539;DHT22;1280;49.760;9.664;2022-12-18T15:54:26;-2.00;79.00
2539;DHT22;1280;49.760;9.664;2022-12-18T15:57:12;-2.10;78.90
2539;DHT22;1280;49.760;9.664;2022-12-18T15:59:56;-2.20;79.00
2539;DHT22;1280;49.760;9.664;2022-12-18T16:02:25;-2.20;79.20
2539;DHT22;1280;49.760;9.664;2022-12-18T16:04:55;-2.20;79.20
2539;DHT22;1280;49.760;9.664;2022-12-18T16:07:22;-2.20;79.40
2539;DHT22;1280;49.760;9.664;2022-12-18T16:09:56;-2.20;79.40
2539;DHT22;1280;49.760;9.664;2022-12-18T16:12:26;-2.20;79.50
2539;DHT22;1280;49.760;9.664;2022-12-18T16:14:55;-2.20;79.50
2539;DHT22;1280;49.760;9.664;2022-12-18T16:17:23;-2.20;79.40
2539;DHT22;1280;49.760;9.664;2022-12-18T16:19:51;-2.20;79.50
2539;DHT22;1280;49.760;9.664;2022-12-18T16:22:21;-2.20;79.50
2539;DHT22;1280;49.760;9.664;2022-12-18T16:24:50;-2.20;79.50
2539;DHT22;1280;49.760;9.664;2022-12-18T16:27:19;-2.20;79.70
2539;DHT22;1280;49.760;9.664;2022-12-18T16:29:48;-2.10;79.70
2539;DHT22;1280;49.760;9.664;2022-12-18T16:32:19;-2.10;79.70
2539;DHT22;1280;49.760;9.664;2022-12-18T16:34:47;-2.00;79.70
2539;DHT22;1280;49.760;9.664;2022-12-18T16:37:15;-2.00;79.70
2539;DHT22;1280;49.760;9.664;2022-12-18T16:39:43;-2.00;79.70
2539;DHT22;1280;49.760;9.664;2022-12-18T16:42:14;-1.90;79.70
2539;DHT22;1280;49.760;9.664;2022-12-18T16:44:44;-1.90;79.60
2539;DHT22;1280;49.760;9.664;2022-12-18T16:47:13;-1.90;79.50